Time;durP1;ratioP1;P1;durP2;ratioP2;P2;SDS_P1;SDS_P2;PMS_P1;PMS_P2;Temp;Humidity;BMP_temperature;BMP_pressure;BME280_temperature;BME280_humidity;BME280_pressure;Samples;Min_cycle;Max_cycle;Signal;HPM_P1;HPM_P2
2023/09/12 00:01:05;;;;;;;19.30;12.50;;;;;;;17.16;96.05;100206.80;217871;1288;142271;-89
2023/09/12 00:06:06;;;;;;;15.50;11.80;;;;;;;17.14;96.27;100206.84;218375;1288;142309;-88
2023/09/12 00:11:12;;;;;;;17.90;12.20;;;;;;;17.10;96.07;100198.95;217858;1290;141616;-88
2023/09/12 00:16:12;;;;;;;20.00;12.70;;;;;;;17.08;96.52;100199.39;218233;1288;139387;-89
2023/09/12 00:21:13;;;;;;;21.80;13.90;;;;;;;17.03;97.21;100197.59;217913;1288;143442;-89
2023/09/12 00:26:13;;;;;;;18.60;12.80;;;;;;;16.97;97.83;100195.08;218264;1288;139925;-88
2023/09/12 00:31:14;;;;;;;18.00;12.30;;;;;;;16.92;98.28;100198.12;217831;1289;142975;-89
2023/09/12 00:36:14;;;;;;;16.60;12.60;;;;;;;16.88;98.52;100194.39;218264;1289;139683;-89
2023/09/12 00:41:14;;;;;;;17.20;12.60;;;;;;;16.85;97.71;100193.89;217861;1288;141634;-89
2023/09/12 00:46:19;;;;;;;19.10;13.20;;;;;;;16.83;98.14;100195.11;218246;1290;139161;-88
2023/09/12 00:51:21;;;;;;;18.50;11.90;;;;;;;16.80;98.35;100192.21;217857;1290;141743;-88
2023/09/12 00:56:21;;;;;;;19.70;12.80;;;;;;;16.77;98.79;100190.53;218182;1289;139600;-88
2023/09/12 01:01:23;;;;;;;18.50;11.90;;;;;;;16.73;99.12;100190.76;217683;1288;143074;-89
2023/09/12 01:06:27;;;;;;;18.70;13.30;;;;;;;16.69;98.97;100193.13;218390;1288;139384;-88
2023/09/12 01:11:28;;;;;;;20.30;13.70;;;;;;;16.66;99.20;100194.05;217864;1288;143696;-88
2023/09/12 01:16:28;;;;;;;20.00;14.20;;;;;;;16.64;99.77;100194.17;218121;1288;139365;-88
2023/09/12 01:22:15;;;;;;;21.50;15.60;;;;;;;16.59;99.83;100192.10;217962;1288;141109;-88
2023/09/12 01:27:23;;;;;;;21.40;14.90;;;;;;;16.55;100.00;100196.80;218482;1290;107542;-88
2023/09/12 01:32:24;;;;;;;22.40;15.30;;;;;;;16.51;100.00;100196.63;217798;1288;141873;-90
2023/09/12 01:37:25;;;;;;;20.50;12.90;;;;;;;16.48;99.73;100194.45;218437;1288;139659;-89
2023/09/12 01:42:31;;;;;;;19.30;13.00;;;;;;;16.45;99.88;100196.16;218041;1288;141205;-89
2023/09/12 01:47:33;;;;;;;19.70;14.10;;;;;;;16.41;99.97;100198.36;218415;1288;139210;-88
2023/09/12 01:52:34;;;;;;;23.70;15.50;;;;;;;16.38;100.00;100199.52;217549;1291;142924;-88
2023/09/12 01:57:37;;;;;;;19.70;14.60;;;;;;;16.35;99.86;100199.55;218461;1290;96065;-89
2023/09/12 02:02:37;;;;;;;24.40;16.10;;;;;;;16.33;99.51;100199.98;217634;1288;141075;-88
2023/09/12 02:07:41;;;;;;;25.00;17.60;;;;;;;16.31;99.83;100200.80;218352;1290;139626;-89
2023/09/12 02:12:41;;;;;;;23.50;16.30;;;;;;;16.27;100.00;100198.34;217575;1288;143000;-88
2023/09/12 02:17:42;;;;;;;22.70;16.30;;;;;;;16.22;100.00;100196.02;218305;1291;139985;-88
2023/09/12 02:22:43;;;;;;;28.10;19.30;;;;;;;16.19;100.00;100190.29;217789;1288;141210;-88
2023/09/12 02:27:43;;;;;;;22.40;15.20;;;;;;;16.17;100.00;100195.39;218326;1290;95992;-88
2023/09/12 02:32:43;;;;;;;21.40;15.80;;;;;;;16.15;99.98;100195.41;217737;1288;142899;-89
2023/09/12 02:37:44;;;;;;;28.30;17.70;;;;;;;16.13;99.83;100198.14;218427;1288;139196;-89
2023/09/12 02:42:45;;;;;;;22.60;17.00;;;;;;;16.10;100.00;100193.75;217673;1288;141949;-90
2023/09/12 02:47:46;;;;;;;25.10;18.60;;;;;;;16.08;100.00;100194.89;218377;1291;139350;-90
2023/09/12 02:52:46;;;;;;;26.70;20.30;;;;;;;16.06;99.98;100194.91;217688;1289;140888;-89
2023/09/12 02:57:47;;;;;;;33.80;23.10;;;;;;;16.05;100.00;100195.25;218450;1290;96007;-89
2023/09/12 03:02:47;;;;;;;28.80;19.10;;;;;;;16.07;100.00;100194.52;217730;1288;141574;-89
2023/09/12 03:07:48;;;;;;;29.60;21.10;;;;;;;16.07;100.00;100195.23;218355;1289;139479;-89
2023/09/12 03:12:49;;;;;;;28.60;19.10;;;;;;;16.03;100.00;100190.29;217671;1288;144879;-90
2023/09/12 03:17:49;;;;;;;33.90;21.20;;;;;;;15.99;100.00;100192.09;218305;1288;139722;-89
2023/09/12 03:22:50;;;;;;;33.20;23.70;;;;;;;15.97;100.00;100192.27;217681;1288;140933;-89
2023/09/12 03:27:50;;;;;;;31.80;22.20;;;;;;;15.96;100.00;100189.83;218643;1288;96034;-89
2023/09/12 03:32:50;;;;;;;32.20;22.40;;;;;;;15.94;100.00;100194.93;217953;1288;141295;-89
2023/09/12 03:37:51;;;;;;;27.10;19.80;;;;;;;15.91;100.00;100188.79;218390;1290;139360;-89
2023/09/12 03:42:51;;;;;;;33.50;22.20;;;;;;;15.88;100.00;100193.77;217675;1290;140865;-90
2023/09/12 03:47:51;;;;;;;32.60;22.20;;;;;;;15.86;100.00;100191.80;218215;1288;140057;-89
2023/09/12 03:52:52;;;;;;;33.60;22.90;;;;;;;15.84;100.00;100194.05;217764;1288;141324;-90
2023/09/12 03:57:52;;;;;;;31.30;22.90;;;;;;;15.84;100.00;100194.84;218434;1288;96748;-90
2023/09/12 04:02:53;;;;;;;40.00;24.70;;;;;;;15.83;100.00;100195.98;217672;1288;141559;-90
2023/09/12 04:07:53;;;;;;;33.90;24.30;;;;;;;15.82;100.00;100191.63;218305;1288;139218;-90
2023/09/12 04:12:53;;;;;;;30.70;22.70;;;;;;;15.82;100.00;100189.23;217820;1288;142263;-90
2023/09/12 04:17:54;;;;;;;34.70;23.60;;;;;;;15.81;100.00;100185.52;218148;1288;139396;-90
2023/09/12 04:22:54;;;;;;;33.00;24.10;;;;;;;15.81;100.00;100184.58;217835;1291;142537;-90
2023/09/12 04:27:55;;;;;;;30.00;21.70;;;;;;;15.80;100.00;100185.23;218365;1291;95985;-90
2023/09/12 04:32:55;;;;;;;30.30;21.60;;;;;;;15.79;100.00;100182.55;217805;1289;140658;-90
2023/09/12 04:37:56;;;;;;;33.80;22.80;;;;;;;15.78;100.00;100177.89;218165;1288;139764;-90
2023/09/12 04:42:56;;;;;;;31.40;22.40;;;;;;;15.77;100.00;100185.34;217604;1289;144700;-90
2023/09/12 04:47:57;;;;;;;34.50;23.80;;;;;;;15.76;100.00;100185.36;218043;1291;140255;-90
2023/09/12 04:52:58;;;;;;;34.70;25.20;;;;;;;15.76;100.00;100184.88;217676;1288;141699;-90
2023/09/12 04:57:58;;;;;;;37.20;25.10;;;;;;;15.78;100.00;100192.70;218382;1290;95928;-90
2023/09/12 05:02:59;;;;;;;40.20;26.90;;;;;;;15.80;100.00;100188.40;217697;1294;141755;-90
2023/09/12 05:08:00;;;;;;;42.40;29.80;;;;;;;15.82;100.00;100191.39;218208;1291;139900;-90
2023/09/12 05:13:00;;;;;;;42.60;31.20;;;;;;;15.86;100.00;100192.05;217839;1288;141971;-90
2023/09/12 05:18:01;;;;;;;46.60;31.60;;;;;;;15.91;100.00;100190.94;218530;1289;139626;-91
2023/09/12 05:23:02;;;;;;;51.10;32.40;;;;;;;16.04;100.00;100197.17;217695;1288;142766;-89
2023/09/12 05:28:03;;;;;;;47.50;33.10;;;;;;;16.19;100.00;100201.70;218446;1289;96075;-90
2023/09/12 05:33:03;;;;;;;51.90;36.50;;;;;;;16.30;100.00;100203.45;217781;1290;141370;-88
2023/09/12 05:38:04;;;;;;;53.50;35.70;;;;;;;16.39;100.00;100201.41;218329;1289;139966;-90
2023/09/12 05:43:04;;;;;;;49.80;35.20;;;;;;;16.55;100.00;100197.02;217719;1288;143002;-89
2023/09/12 05:48:05;;;;;;;49.00;35.50;;;;;;;16.68;100.00;100199.73;218301;1288;138453;-89
2023/09/12 05:53:05;;;;;;;54.60;35.40;;;;;;;16.80;100.00;100201.76;217834;1288;141742;-90
2023/09/12 05:58:06;;;;;;;48.70;33.80;;;;;;;16.99;100.00;100198.63;218337;1289;96038;-89
2023/09/12 06:03:06;;;;;;;50.40;33.60;;;;;;;17.19;100.00;100201.02;217572;1292;143385;-89
2023/09/12 06:08:07;;;;;;;47.90;33.70;;;;;;;17.37;100.00;100206.23;218281;1288;139162;-90
2023/09/12 06:13:07;;;;;;;48.40;33.70;;;;;;;17.54;100.00;100212.12;217721;1288;141402;-90
2023/09/12 06:18:08;;;;;;;52.30;32.10;;;;;;;17.72;100.00;100214.11;218202;1288;139516;-89
2023/09/12 06:23:10;;;;;;;48.00;32.50;;;;;;;17.99;100.00;100215.11;217670;1288;142824;-90
2023/09/12 06:28:10;;;;;;;50.40;31.40;;;;;;;18.25;100.00;100215.84;218329;1288;140320;-87
2023/09/12 06:33:12;;;;;;;48.60;30.40;;;;;;;18.39;100.00;100214.83;217937;1288;142934;-88
2023/09/12 06:38:12;;;;;;;49.60;30.10;;;;;;;18.59;100.00;100214.44;218235;1290;139177;-88
2023/09/12 06:43:13;;;;;;;42.10;29.20;;;;;;;18.72;100.00;100219.02;217609;1288;141148;-88
2023/09/12 06:48:14;;;;;;;46.30;28.80;;;;;;;18.87;100.00;100219.67;218374;1291;140612;-87
2023/09/12 06:53:14;;;;;;;45.10;29.20;;;;;;;19.07;99.86;100229.18;217697;1290;142290;-88
2023/09/12 06:58:15;;;;;;;48.60;27.70;;;;;;;19.24;99.05;100229.37;218200;1290;139823;-88
2023/09/12 07:03:16;;;;;;;43.30;27.00;;;;;;;19.41;98.15;100226.36;217912;1288;141513;-88
2023/09/12 07:08:17;;;;;;;45.40;25.50;;;;;;;19.60;97.84;100229.97;218290;1289;140012;-88
2023/09/12 07:13:17;;;;;;;42.20;25.50;;;;;;;19.81;97.01;100225.19;217685;1289;142563;-88
2023/09/12 07:18:19;;;;;;;33.80;23.10;;;;;;;20.06;96.35;100227.39;218275;1290;140376;-88
2023/09/12 07:23:19;;;;;;;41.60;22.00;;;;;;;20.35;94.85;100226.51;217842;1288;140905;-86
2023/09/12 07:28:20;;;;;;;29.90;20.60;;;;;;;20.54;92.99;100230.61;218338;1288;139319;-87
2023/09/12 07:33:21;;;;;;;31.40;20.80;;;;;;;20.72;92.29;100224.26;217841;1289;141964;-89
2023/09/12 07:38:22;;;;;;;33.60;21.50;;;;;;;20.89;91.94;100228.70;218248;1289;139587;-89
2023/09/12 07:43:22;;;;;;;30.00;19.60;;;;;;;21.11;91.03;100227.89;217689;1290;140849;-88
2023/09/12 07:48:23;;;;;;;38.40;21.90;;;;;;;21.31;90.45;100230.84;218372;1289;139169;-89
2023/09/12 07:53:23;;;;;;;39.50;20.00;;;;;;;21.57;90.04;100229.17;217805;1288;141713;-89
2023/09/12 07:58:24;;;;;;;33.70;19.20;;;;;;;21.81;90.37;100227.43;218375;1289;139719;-89
2023/09/12 08:03:24;;;;;;;38.90;18.90;;;;;;;22.04;89.56;100229.34;217945;1289;142936;-88
2023/09/12 08:08:25;;;;;;;31.60;17.90;;;;;;;22.31;89.40;100230.88;218379;1288;139212;-85
2023/09/12 08:13:29;;;;;;;39.40;17.70;;;;;;;22.58;88.31;100227.11;217837;1289;140855;-86
2023/09/12 08:18:30;;;;;;;47.10;18.90;;;;;;;22.91;87.36;100229.73;218358;1289;140385;-88
2023/09/12 08:23:31;;;;;;;53.30;19.40;;;;;;;23.17;86.32;100228.34;217732;1292;142821;-88
2023/09/12 08:28:31;;;;;;;72.10;17.90;;;;;;;23.45;85.22;100230.90;218345;1289;139304;-87
2023/09/12 08:33:33;;;;;;;27.50;16.00;;;;;;;23.75;83.75;100227.83;217985;1288;140605;-87
2023/09/12 08:38:34;;;;;;;26.10;15.40;;;;;;;24.09;82.11;100229.39;218395;1289;140139;-88
2023/09/12 08:43:35;;;;;;;26.20;14.70;;;;;;;24.44;80.73;100232.77;217681;1289;142526;-87
2023/09/12 08:48:38;;;;;;;26.00;13.30;;;;;;;24.85;79.29;100234.39;218189;1288;140210;-88
2023/09/12 08:53:39;;;;;;;22.30;13.10;;;;;;;25.36;78.78;100235.75;217881;1289;141571;-88
2023/09/12 08:58:40;;;;;;;98.90;17.70;;;;;;;25.94;77.48;100228.33;218231;1290;140051;-88
2023/09/12 09:03:42;;;;;;;28.30;13.30;;;;;;;26.69;75.72;100233.77;217914;1288;141274;-88
2023/09/12 09:08:43;;;;;;;56.50;13.70;;;;;;;27.38;72.21;100235.46;218320;1288;140265;-89
2023/09/12 09:13:44;;;;;;;21.50;11.80;;;;;;;28.20;70.63;100228.58;217799;1288;141151;-88
2023/09/12 09:19:10;;;;;;;24.90;13.30;;;;;;;29.16;69.51;100229.23;218225;1288;138582;-89
2023/09/12 09:24:17;;;;;;;18.70;10.90;;;;;;;30.17;64.21;100226.98;217804;1289;139308;-89
2023/09/12 09:29:19;;;;;;;20.80;12.50;;;;;;;31.00;61.85;100225.10;217669;1289;140911;-89
2023/09/12 09:34:23;;;;;;;22.70;11.30;;;;;;;31.80;58.33;100225.36;218262;1289;139840;-88
2023/09/12 09:39:26;;;;;;;16.90;11.20;;;;;;;32.46;56.97;100220.00;217741;1291;143180;-89
2023/09/12 09:44:28;;;;;;;29.30;12.80;;;;;;;33.05;54.47;100215.45;218325;1290;139908;-90
2023/09/12 09:49:33;;;;;;;17.90;11.30;;;;;;;33.61;53.38;100215.35;217656;1288;140500;-87
2023/09/12 09:54:34;;;;;;;19.10;12.30;;;;;;;34.05;49.26;100216.84;218127;1290;138832;-88
2023/09/12 09:59:34;;;;;;;19.50;11.00;;;;;;;34.26;47.14;100218.84;217881;1288;141089;-88
2023/09/12 10:04:35;;;;;;;18.00;10.80;;;;;;;34.40;47.22;100216.42;218452;1289;139101;-89
2023/09/12 10:09:37;;;;;;;16.00;10.90;;;;;;;34.94;45.61;100208.34;218018;1288;140657;-89
2023/09/12 10:14:39;;;;;;;12.90;10.90;;;;;;;35.29;43.69;100205.61;218199;1290;139080;-89
2023/09/12 10:19:55;;;;;;;17.50;11.10;;;;;;;35.57;43.56;100197.71;217787;1288;140862;-90
2023/09/12 10:24:56;;;;;;;17.10;10.30;;;;;;;36.11;42.64;100197.21;218129;1288;139234;-89
2023/09/12 10:29:59;;;;;;;13.60;9.30;;;;;;;36.51;42.23;100198.73;217852;1288;140743;-89
2023/09/12 10:35:02;;;;;;;20.70;10.00;;;;;;;36.75;41.78;100198.20;218343;1288;139193;-89
2023/09/12 10:40:07;;;;;;;13.70;9.40;;;;;;;36.94;39.80;100197.13;217957;1288;140463;-90
2023/09/12 10:45:09;;;;;;;14.60;9.90;;;;;;;36.91;37.65;100196.64;218450;1288;96438;-89
2023/09/12 10:50:31;;;;;;;15.70;9.20;;;;;;;36.59;34.49;100198.05;217897;1290;140033;-89
2023/09/12 10:55:31;;;;;;;11.50;8.50;;;;;;;36.42;36.77;100195.13;218319;1290;138342;-89
2023/09/12 11:00:37;;;;;;;14.60;9.40;;;;;;;36.56;36.78;100197.61;217886;1288;237502;-89
2023/09/12 11:05:50;;;;;;;13.40;9.40;;;;;;;36.50;36.08;100192.34;218453;1291;137356;-89
2023/09/12 11:11:09;;;;;;;;;;;;;;;36.53;35.18;100185.59;217896;1289;140833;-89
2023/09/12 11:16:40;;;;;;;15.40;10.00;;;;;;;36.63;35.83;100189.60;218808;1289;100086;-90
2023/09/12 11:21:59;;;;;;;14.00;10.60;;;;;;;36.52;36.26;100181.57;218103;1289;140798;-90
2023/09/12 11:27:11;;;;;;;15.60;10.10;;;;;;;36.54;36.59;100188.84;218680;1288;138701;-89
2023/09/12 11:32:41;;;;;;;19.30;10.60;;;;;;;36.40;34.88;100181.55;217822;1289;140610;-89
2023/09/12 11:37:55;;;;;;;11.50;8.70;;;;;;;36.32;35.50;100181.94;218562;1291;137401;-88
2023/09/12 11:42:56;;;;;;;15.00;10.20;;;;;;;36.09;34.74;100175.77;217646;1290;140278;-90
2023/09/12 11:47:57;;;;;;;15.80;9.20;;;;;;;35.75;36.10;100179.39;218280;1288;138912;-88
2023/09/12 11:53:11;;;;;;;14.00;9.20;;;;;;;35.71;35.83;100179.79;217724;1289;139466;-89
2023/09/12 11:58:13;;;;;;;;;;;;;;;35.55;35.29;100177.13;218410;1289;96050;-88
2023/09/12 12:03:18;;;;;;;14.10;9.20;;;;;;;35.26;35.16;100178.26;217834;1288;126996;-87
2023/09/12 12:08:18;;;;;;;12.40;8.80;;;;;;;35.02;36.57;100175.43;218132;1290;138355;-87
2023/09/12 12:13:20;;;;;;;11.30;8.20;;;;;;;34.92;36.89;100181.88;217488;1288;138800;-87
2023/09/12 12:18:21;;;;;;;18.80;9.50;;;;;;;34.84;34.95;100183.55;218296;1288;139629;-88
2023/09/12 12:23:21;;;;;;;12.50;8.90;;;;;;;34.58;35.79;100172.48;217707;1288;141043;-88
2023/09/12 12:28:22;;;;;;;14.20;9.20;;;;;;;34.34;36.31;100171.10;218464;1288;96034;-87
2023/09/12 12:33:22;;;;;;;12.70;9.60;;;;;;;34.17;36.34;100170.50;217984;1288;140360;-88
2023/09/12 12:38:23;;;;;;;14.30;9.30;;;;;;;34.13;37.36;100169.85;218300;1288;138661;-87
2023/09/12 12:43:23;;;;;;;12.50;8.70;;;;;;;33.96;36.55;100161.06;217690;1288;140478;-87
2023/09/12 12:48:31;;;;;;;14.30;9.00;;;;;;;33.88;36.03;100161.92;218392;1288;139429;-87
2023/09/12 12:53:42;;;;;;;15.50;8.70;;;;;;;33.57;36.05;100147.18;217762;1288;141413;-87
2023/09/12 12:58:47;;;;;;;15.70;9.40;;;;;;;33.36;36.07;100139.19;218074;1290;138324;-86
2023/09/12 13:03:49;;;;;;;16.80;9.70;;;;;;;33.04;36.09;100130.95;217783;1288;140517;-84
2023/09/12 13:08:51;;;;;;;13.90;9.40;;;;;;;32.93;37.46;100129.48;218194;1288;139178;-85
2023/09/12 13:13:51;;;;;;;12.50;8.90;;;;;;;32.77;37.04;100135.08;217836;1288;140355;-87
2023/09/12 13:18:52;;;;;;;12.60;8.60;;;;;;;32.65;37.67;100127.94;218314;1288;139618;-86
2023/09/12 13:23:53;;;;;;;16.00;8.90;;;;;;;32.54;37.45;100123.11;217841;1288;142005;-86
2023/09/12 13:28:53;;;;;;;12.10;9.10;;;;;;;32.48;37.66;100118.22;218378;1288;138349;-88
2023/09/12 13:33:53;;;;;;;13.30;9.00;;;;;;;32.45;40.00;100112.48;217711;1288;142862;-87
2023/09/12 13:38:54;;;;;;;15.70;8.30;;;;;;;32.42;39.86;100115.16;218373;1288;138246;-87
2023/09/12 13:43:54;;;;;;;10.60;8.30;;;;;;;32.42;40.93;100118.56;217998;1291;140043;-87
2023/09/12 13:48:57;;;;;;;15.70;8.30;;;;;;;32.35;38.87;100120.25;218311;1289;138349;-88
2023/09/12 13:53:57;;;;;;;15.40;8.80;;;;;;;32.23;39.79;100113.11;217826;1288;140700;-87
2023/09/12 13:58:58;;;;;;;13.60;8.60;;;;;;;32.13;40.86;100111.24;218399;1288;139022;-87
2023/09/12 14:03:58;;;;;;;13.10;8.60;;;;;;;31.96;40.88;100116.54;218056;1288;140115;-86
2023/09/12 14:08:58;;;;;;;11.80;8.40;;;;;;;31.79;39.93;100118.64;218197;1288;139543;-87
2023/09/12 14:13:59;;;;;;;17.10;9.30;;;;;;;31.64;41.60;100120.74;217908;1288;141125;-87
2023/09/12 14:18:59;;;;;;;16.30;9.90;;;;;;;31.43;41.10;100117.58;218549;1288;138884;-86
2023/09/12 14:24:00;;;;;;;13.40;9.10;;;;;;;31.27;40.19;100113.83;217792;1288;140169;-85
2023/09/12 14:29:00;;;;;;;13.40;9.10;;;;;;;31.08;41.28;100113.08;218294;1288;138434;-87
2023/09/12 14:34:01;;;;;;;12.10;8.90;;;;;;;30.93;43.55;100115.02;217881;1288;142502;-86
2023/09/12 14:39:02;;;;;;;13.40;8.80;;;;;;;30.71;42.97;100119.29;218331;1290;138357;-86
2023/09/12 14:44:05;;;;;;;13.00;9.00;;;;;;;30.53;43.43;100122.44;218324;1289;140139;-87
2023/09/12 14:49:05;;;;;;;12.30;8.10;;;;;;;30.21;42.74;100121.92;218140;1288;141162;-82
2023/09/12 14:54:06;;;;;;;14.00;8.90;;;;;;;30.07;44.25;100123.32;218315;1289;146859;-86
2023/09/12 14:59:08;;;;;;;11.70;9.00;;;;;;;29.99;44.06;100126.59;217587;1289;140342;-85
2023/09/12 15:04:10;;;;;;;19.70;10.60;;;;;;;29.84;44.15;100122.56;218507;1288;95896;-87
2023/09/12 15:09:11;;;;;;;11.40;7.80;;;;;;;29.79;45.22;100124.54;217820;1288;139481;-87
2023/09/12 15:14:11;;;;;;;18.20;9.50;;;;;;;29.64;45.65;100125.20;218349;1289;139265;-87
2023/09/12 15:19:11;;;;;;;13.10;8.40;;;;;;;29.44;46.41;100125.20;217819;1288;140891;-87
2023/09/12 15:24:36;;;;;;;14.80;9.50;;;;;;;29.21;47.45;100123.80;218619;1288;140117;-87
2023/09/12 15:29:37;;;;;;;16.20;9.60;;;;;;;29.07;48.03;100123.47;217804;1289;140880;-87
2023/09/12 15:34:37;;;;;;;40.40;13.70;;;;;;;28.89;48.08;100122.96;218319;1288;138555;-86
2023/09/12 15:39:38;;;;;;;17.90;8.70;;;;;;;28.60;48.11;100123.96;218249;1288;140684;-87
2023/09/12 15:44:38;;;;;;;13.50;8.20;;;;;;;28.39;49.45;100116.38;218459;1290;139012;-86
2023/09/12 15:49:39;;;;;;;17.30;9.20;;;;;;;28.22;49.08;100112.19;217753;1291;141407;-87
2023/09/12 15:54:39;;;;;;;19.10;9.50;;;;;;;28.03;49.79;100115.01;218176;1289;140528;-87
2023/09/12 15:59:40;;;;;;;13.20;8.40;;;;;;;27.85;50.55;100112.54;217708;1288;141360;-87
2023/09/12 16:04:43;;;;;;;15.00;8.30;;;;;;;27.73;52.13;100105.33;218545;1288;138911;-87
2023/09/12 16:09:44;;;;;;;15.20;8.60;;;;;;;27.64;52.67;100109.36;218057;1289;140626;-87
2023/09/12 16:14:44;;;;;;;13.30;8.90;;;;;;;27.56;53.50;100108.67;218408;1288;137562;-86
2023/09/12 16:19:44;;;;;;;14.50;9.50;;;;;;;27.45;54.81;100112.98;217801;1288;140042;-87
2023/09/12 16:24:45;;;;;;;13.50;8.80;;;;;;;27.36;55.86;100112.29;218429;1289;138511;-87
2023/09/12 16:29:45;;;;;;;15.80;9.50;;;;;;;27.26;56.84;100113.67;217829;1289;141649;-87
2023/09/12 16:34:46;;;;;;;13.70;9.90;;;;;;;27.14;58.00;100111.16;218405;1289;138472;-87
2023/09/12 16:39:46;;;;;;;82.90;24.60;;;;;;;27.03;58.87;100116.78;217897;1290;140817;-86
2023/09/12 16:44:47;;;;;;;19.90;11.30;;;;;;;26.89;60.25;100120.67;218330;1288;138343;-86
2023/09/12 16:49:48;;;;;;;15.10;9.70;;;;;;;26.70;61.74;100121.30;217187;1288;139901;-88
2023/09/12 16:54:48;;;;;;;13.40;10.00;;;;;;;26.48;62.67;100120.23;216655;1288;138489;-86
2023/09/12 16:59:49;;;;;;;15.50;11.00;;;;;;;26.26;63.57;100118.38;216249;1288;139416;-87
2023/09/12 17:04:49;;;;;;;19.70;11.00;;;;;;;25.99;64.75;100112.84;216656;1288;138467;-86
2023/09/12 17:09:59;;;;;;;17.30;10.60;;;;;;;25.78;65.60;100109.95;216394;1291;140902;-87
2023/09/12 17:15:00;;;;;;;17.10;11.30;;;;;;;25.54;66.59;100107.81;216279;1289;139752;-87
2023/09/12 17:20:01;;;;;;;20.40;11.80;;;;;;;25.30;67.12;100111.31;217514;1288;140947;-87
2023/09/12 17:25:05;;;;;;;23.60;12.10;;;;;;;25.09;67.68;100111.36;218399;1289;138442;-88
2023/09/12 17:30:08;;;;;;;19.30;11.00;;;;;;;24.87;68.44;100112.27;217150;1288;140565;-85
2023/09/12 17:35:09;;;;;;;15.60;10.50;;;;;;;24.63;69.69;100112.73;218058;1288;140345;-87
2023/09/12 17:40:10;;;;;;;20.80;12.20;;;;;;;24.49;69.80;100118.64;217911;1290;141963;-86
2023/09/12 17:45:11;;;;;;;15.80;11.70;;;;;;;24.32;70.44;100120.20;218112;1291;138932;-85
2023/09/12 17:50:11;;;;;;;20.80;13.00;;;;;;;24.10;71.02;100116.95;217671;1288;139917;-87
2023/09/12 17:55:11;;;;;;;18.40;11.60;;;;;;;23.89;71.77;100124.98;218361;1289;139012;-89
2023/09/12 18:00:12;;;;;;;19.70;12.20;;;;;;;23.74;72.08;100127.60;217920;1291;140792;-88
2023/09/12 18:05:12;;;;;;;19.80;12.70;;;;;;;23.54;72.79;100128.63;218220;1288;139114;-89
2023/09/12 18:10:13;;;;;;;18.90;13.20;;;;;;;23.31;73.77;100134.81;217915;1288;140944;-89
2023/09/12 18:15:13;;;;;;;22.30;14.10;;;;;;;23.14;73.92;100135.53;218382;1290;139186;-88
2023/09/12 18:20:14;;;;;;;22.50;12.90;;;;;;;22.96;74.80;100138.16;217661;1288;141221;-88
2023/09/12 18:25:15;;;;;;;21.30;13.60;;;;;;;22.79;75.70;100145.80;218025;1288;139583;-87
2023/09/12 18:30:16;;;;;;;23.60;14.10;;;;;;;22.63;76.58;100147.13;217711;1288;142326;-88
2023/09/12 18:35:20;;;;;;;24.00;14.00;;;;;;;22.46;77.29;100150.80;218342;1288;139134;-89
2023/09/12 18:40:22;;;;;;;19.60;12.80;;;;;;;22.29;77.86;100153.91;217679;1288;141397;-88
2023/09/12 18:45:23;;;;;;;19.10;13.40;;;;;;;22.16;78.16;100151.33;218000;1289;140263;-88
2023/09/12 18:50:24;;;;;;;23.40;13.20;;;;;;;22.05;79.32;100152.67;217635;1288;142190;-89
2023/09/12 18:55:25;;;;;;;22.90;13.90;;;;;;;21.91;80.03;100156.20;218157;1290;139578;-89
2023/09/12 19:00:25;;;;;;;17.50;13.10;;;;;;;21.79;80.01;100157.20;217541;1289;142292;-89
2023/09/12 19:05:25;;;;;;;19.30;12.60;;;;;;;21.74;80.38;100153.10;218376;1288;140149;-89
2023/09/12 19:10:26;;;;;;;18.80;13.10;;;;;;;21.64;80.98;100154.33;217907;1288;142420;-89
2023/09/12 19:15:27;;;;;;;18.90;13.80;;;;;;;21.59;80.62;100155.14;218220;1288;139032;-89
2023/09/12 19:20:27;;;;;;;17.90;12.20;;;;;;;21.57;79.94;100145.38;217686;1288;142161;-89
2023/09/12 19:25:29;;;;;;;19.10;12.80;;;;;;;21.53;80.04;100142.13;218429;1288;139587;-88
2023/09/12 19:30:31;;;;;;;18.30;12.70;;;;;;;21.44;80.50;100140.91;217878;1290;141434;-88
2023/09/12 19:35:34;;;;;;;19.20;12.70;;;;;;;21.33;81.51;100146.88;218246;1289;139668;-89
2023/09/12 19:40:36;;;;;;;21.70;13.70;;;;;;;21.19;82.17;100138.50;218079;1291;140889;-89
2023/09/12 19:45:38;;;;;;;24.90;13.80;;;;;;;21.04;83.03;100136.92;218464;1288;104691;-86
2023/09/12 19:50:41;;;;;;;22.40;12.00;;;;;;;20.88;83.28;100135.94;217811;1288;141747;-89
2023/09/12 19:55:53;;;;;;;19.90;12.80;;;;;;;20.81;83.53;100131.73;218077;1288;140558;-88
2023/09/12 20:00:58;;;;;;;22.60;13.30;;;;;;;20.74;84.38;100138.92;217505;1291;142027;-88
2023/09/12 20:05:58;;;;;;;17.70;13.00;;;;;;;20.61;84.53;100146.95;218242;1289;139639;-88
2023/09/12 20:10:59;;;;;;;17.50;11.60;;;;;;;20.52;84.80;100148.14;217625;1288;141104;-88
2023/09/12 20:16:00;;;;;;;21.00;12.80;;;;;;;20.43;84.90;100148.20;218491;1288;96022;-87
2023/09/12 20:21:00;;;;;;;18.20;11.50;;;;;;;20.33;85.24;100147.41;217794;1289;140930;-88
2023/09/12 20:26:07;;;;;;;18.50;12.20;;;;;;;20.30;85.54;100142.97;218344;1288;140194;-87
2023/09/12 20:31:07;;;;;;;22.30;13.80;;;;;;;20.26;85.64;100145.64;217597;1288;141809;-88
2023/09/12 20:36:08;;;;;;;18.70;12.70;;;;;;;20.21;85.95;100144.30;218314;1290;139793;-88
2023/09/12 20:41:08;;;;;;;19.50;13.60;;;;;;;20.12;86.46;100144.85;217769;1288;141822;-89
2023/09/12 20:46:09;;;;;;;24.10;13.70;;;;;;;20.05;87.24;100143.94;217925;1288;96310;-89
2023/09/12 20:51:11;;;;;;;19.30;12.30;;;;;;;19.99;87.72;100145.48;216072;1288;142573;-89
2023/09/12 20:56:13;;;;;;;16.40;12.50;;;;;;;19.91;88.19;100144.86;216610;1290;139261;-89
2023/09/12 21:01:13;;;;;;;25.40;14.60;;;;;;;19.86;88.26;100143.57;216176;1291;141192;-88
2023/09/12 21:06:14;;;;;;;18.60;12.00;;;;;;;19.82;88.41;100148.51;216733;1288;140666;-88
2023/09/12 21:11:15;;;;;;;19.60;13.30;;;;;;;19.81;88.11;100149.41;216163;1291;140536;-88
2023/09/12 21:16:15;;;;;;;17.50;12.70;;;;;;;19.73;88.41;100149.16;217247;1288;96174;-88
2023/09/12 21:21:16;;;;;;;17.10;12.50;;;;;;;19.66;88.72;100144.75;217624;1288;140761;-89
2023/09/12 21:26:17;;;;;;;16.70;12.80;;;;;;;19.64;89.38;100148.24;218289;1288;140297;-89
2023/09/12 21:31:18;;;;;;;20.00;13.20;;;;;;;19.60;90.40;100148.38;217765;1291;141647;-89
2023/09/12 21:36:18;;;;;;;20.60;13.60;;;;;;;19.53;90.76;100150.72;218269;1288;139393;-89
2023/09/12 21:41:18;;;;;;;19.20;13.70;;;;;;;19.48;90.81;100144.98;217850;1290;141341;-89
2023/09/12 21:46:19;;;;;;;16.80;12.40;;;;;;;19.45;91.49;100144.12;218260;1293;96144;-89
2023/09/12 21:51:19;;;;;;;18.30;13.90;;;;;;;19.43;90.80;100142.25;217802;1288;141657;-88
2023/09/12 21:56:20;;;;;;;19.20;13.60;;;;;;;19.43;91.56;100143.70;218326;1291;139982;-87
2023/09/12 22:01:20;;;;;;;16.50;12.70;;;;;;;19.39;92.13;100144.53;217908;1288;142100;-88
2023/09/12 22:06:20;;;;;;;18.70;14.00;;;;;;;19.36;92.33;100141.42;218163;1291;139602;-88
2023/09/12 22:11:21;;;;;;;18.80;13.90;;;;;;;19.34;92.67;100137.44;217813;1288;141171;-88
2023/09/12 22:16:21;;;;;;;19.00;13.00;;;;;;;19.30;92.92;100128.91;218435;1289;95921;-88
2023/09/12 22:21:22;;;;;;;16.30;12.40;;;;;;;19.27;92.82;100131.02;217745;1289;140752;-88